Time;durP1;ratioP1;P1;durP2;ratioP2;P2;SDS_P1;SDS_P2;PMS_P1;PMS_P2;Temp;Humidity;BMP_temperature;BMP_pressure;BME280_temperature;BME280_humidity;BME280_pressure;Samples;Min_cycle;Max_cycle;Signal;HPM_P1;HPM_P2
2024/03/08 00:00:32;;;;;;;;;;;;;;;;;;5093619;28;20368;-71
2024/03/08 00:03:01;;;;;;;;;;;;;;;;;;5093615;28;19908;-71
2024/03/08 00:05:26;;;;;;;;;;;;;;;;;;5075827;28;20317;-71
2024/03/08 00:07:53;;;;;;;;;;;;;;;;;;5097704;28;19942;-71
2024/03/08 00:10:20;;;;;;;;;;;;;;;;;;5097680;28;20269;-71
2024/03/08 00:12:46;;;;;;;;;;;;;;;;;;5097266;28;19931;-71
2024/03/08 00:15:15;;;;;;;;;;;;;;;;;;5098103;28;20360;-71
2024/03/08 00:17:41;;;;;;;;;;;;;;;;;;5097509;28;19908;-71
2024/03/08 00:20:10;;;;;;;;;;;;;;;;;;5097188;28;20375;-71
2024/03/08 00:22:36;;;;;;;;;;;;;;;;;;5097447;28;19908;-71
2024/03/08 00:25:02;;;;;;;;;;;;;;;;;;5097328;28;19974;-72
2024/03/08 00:27:30;;;;;;;;;;;;;;;;;;5097130;28;19908;-71
2024/03/08 00:29:56;;;;;;;;;;;;;;;;;;5097287;28;19909;-71
2024/03/08 00:32:24;;;;;;;;;;;;;;;;;;5097345;28;19919;-71
2024/03/08 00:34:51;;;;;;;;;;;;;;;;;;5078682;28;20002;-72
2024/03/08 00:37:17;;;;;;;;;;;;;;;;;;5097376;28;19908;-71
2024/03/08 00:39:43;;;;;;;;;;;;;;;;;;5097154;28;19954;-71
2024/03/08 00:42:09;;;;;;;;;;;;;;;;;;5096836;28;19954;-71
2024/03/08 00:44:35;;;;;;;;;;;;;;;;;;5096828;28;19920;-71
2024/03/08 00:47:03;;;;;;;;;;;;;;;;;;5097187;28;19961;-71
2024/03/08 00:49:29;;;;;;;;;;;;;;;;;;5096548;28;19908;-71
2024/03/08 00:51:55;;;;;;;;;;;;;;;;;;5097035;28;19908;-71
2024/03/08 00:54:21;;;;;;;;;;;;;;;;;;5096889;28;19923;-71
2024/03/08 00:56:47;;;;;;;;;;;;;;;;;;5096579;28;19947;-71
2024/03/08 00:59:14;;;;;;;;;;;;;;;;;;5096644;28;19915;-71
2024/03/08 01:01:40;;;;;;;;;;;;;;;;;;5096473;28;19908;-71
2024/03/08 01:04:07;;;;;;;;;;;;;;;;;;5096757;28;19916;-71
2024/03/08 01:06:33;;;;;;;;;;;;;;;;;;5096618;28;19915;-71
2024/03/08 01:08:59;;;;;;;;;;;;;;;;;;5096191;28;19912;-70
2024/03/08 01:11:25;;;;;;;;;;;;;;;;;;5096512;28;19977;-70
2024/03/08 01:13:52;;;;;;;;;;;;;;;;;;5096397;28;19908;-70
2024/03/08 01:16:21;;;;;;;;;;;;;;;;;;5077445;28;19958;-70
2024/03/08 01:18:47;;;;;;;;;;;;;;;;;;5096365;28;19908;-69
2024/03/08 01:21:13;;;;;;;;;;;;;;;;;;5078224;28;19908;-69
2024/03/08 01:23:39;;;;;;;;;;;;;;;;;;5095829;28;19951;-69
2024/03/08 01:26:05;;;;;;;;;;;;;;;;;;5096237;28;20355;-70
2024/03/08 01:28:31;;;;;;;;;;;;;;;;;;5096174;28;19943;-70
2024/03/08 01:30:57;;;;;;;;;;;;;;;;;;5095793;28;19908;-71
2024/03/08 01:33:23;;;;;;;;;;;;;;;;;;5096102;28;19916;-70
2024/03/08 01:35:49;;;;;;;;;;;;;;;;;;5096151;28;19948;-70
2024/03/08 01:38:15;;;;;;;;;;;;;;;;;;5095786;28;19909;-70
2024/03/08 01:40:41;;;;;;;;;;;;;;;;;;5096045;28;19908;-70
2024/03/08 01:43:07;;;;;;;;;;;;;;;;;;5077666;28;20377;-69
2024/03/08 01:45:34;;;;;;;;;;;;;;;;;;5095533;28;19959;-70
2024/03/08 01:48:00;;;;;;;;;;;;;;;;;;5095845;28;19923;-70
2024/03/08 01:50:26;;;;;;;;;;;;;;;;;;5095788;28;19908;-70
2024/03/08 01:52:52;;;;;;;;;;;;;;;;;;5077216;28;19916;-70
2024/03/08 01:55:18;;;;;;;;;;;;;;;;;;5095685;28;19962;-70
2024/03/08 01:57:44;;;;;;;;;;;;;;;;;;5095774;28;19935;-69
2024/03/08 02:00:10;;;;;;;;;;;;;;;;;;5077397;28;19908;-70
2024/03/08 02:02:36;;;;;;;;;;;;;;;;;;5095507;28;19931;-70
2024/03/08 02:05:03;;;;;;;;;;;;;;;;;;5095157;28;19919;-70
2024/03/08 02:07:29;;;;;;;;;;;;;;;;;;5095880;28;19953;-70
2024/03/08 02:09:55;;;;;;;;;;;;;;;;;;5095673;28;20299;-70
2024/03/08 02:12:21;;;;;;;;;;;;;;;;;;5095003;28;19915;-71
2024/03/08 02:14:46;;;;;;;;;;;;;;;;;;5077113;28;20364;-69
2024/03/08 02:17:12;;;;;;;;;;;;;;;;;;5077078;28;19908;-69
2024/03/08 02:19:38;;;;;;;;;;;;;;;;;;5094829;28;19908;-70
2024/03/08 02:22:04;;;;;;;;;;;;;;;;;;5077077;28;19908;-71
2024/03/08 02:24:30;;;;;;;;;;;;;;;;;;5095277;28;19916;-70
2024/03/08 02:26:56;;;;;;;;;;;;;;;;;;5094768;28;20368;-70
2024/03/08 02:29:22;;;;;;;;;;;;;;;;;;5094160;28;20309;-70
2024/03/08 02:31:48;;;;;;;;;;;;;;;;;;5076883;28;19908;-70
2024/03/08 02:34:14;;;;;;;;;;;;;;;;;;5094479;28;19908;-70
2024/03/08 02:36:40;;;;;;;;;;;;;;;;;;5094956;28;19908;-70
2024/03/08 02:39:07;;;;;;;;;;;;;;;;;;5094857;28;20045;-70
2024/03/08 02:41:33;;;;;;;;;;;;;;;;;;5094486;28;19914;-70
2024/03/08 02:43:59;;;;;;;;;;;;;;;;;;5094792;28;20362;-70
2024/03/08 02:46:25;;;;;;;;;;;;;;;;;;5076516;28;19915;-70
2024/03/08 02:48:51;;;;;;;;;;;;;;;;;;5076046;28;20010;-70
2024/03/08 02:51:17;;;;;;;;;;;;;;;;;;5094678;28;19908;-70
2024/03/08 02:53:43;;;;;;;;;;;;;;;;;;5094548;28;20249;-70
2024/03/08 02:56:12;;;;;;;;;;;;;;;;;;5094210;28;19908;-70
2024/03/08 02:58:38;;;;;;;;;;;;;;;;;;5076258;28;19909;-70
2024/03/08 03:01:04;;;;;;;;;;;;;;;;;;5094079;28;19915;-71
2024/03/08 03:03:30;;;;;;;;;;;;;;;;;;5076143;28;20016;-70
2024/03/08 03:05:56;;;;;;;;;;;;;;;;;;5094354;28;19958;-70
2024/03/08 03:08:23;;;;;;;;;;;;;;;;;;5093882;28;19951;-70
2024/03/08 03:10:49;;;;;;;;;;;;;;;;;;5076161;28;19908;-71
2024/03/08 03:13:15;;;;;;;;;;;;;;;;;;5094503;28;20391;-70
2024/03/08 03:15:44;;;;;;;;;;;;;;;;;;5093834;28;19946;-70
2024/03/08 03:18:11;;;;;;;;;;;;;;;;;;5094223;28;19915;-71
2024/03/08 03:20:40;;;;;;;;;;;;;;;;;;5094216;28;19909;-70
2024/03/08 03:23:08;;;;;;;;;;;;;;;;;;5093714;28;20276;-72
2024/03/08 03:25:35;;;;;;;;;;;;;;;;;;5094081;28;20374;-70
2024/03/08 03:28:01;;;;;;;;;;;;;;;;;;5094098;28;19908;-70
2024/03/08 03:30:30;;;;;;;;;;;;;;;;;;5093654;28;20341;-70
2024/03/08 03:32:58;;;;;;;;;;;;;;;;;;5094002;28;19962;-70
2024/03/08 03:35:24;;;;;;;;;;;;;;;;;;5094043;28;19908;-70
2024/03/08 03:40:32;;;;;;;;;;;;;;;;;;5094022;28;19908;-71
2024/03/08 03:42:58;;;;;;;;;;;;;;;;;;5093906;28;19908;-70
2024/03/08 03:45:24;;;;;;;;;;;;;;;;;;5093281;28;20430;-71
2024/03/08 03:47:50;;;;;;;;;;;;;;;;;;5093863;28;19908;-71
2024/03/08 03:50:16;;;;;;;;;;;;;;;;;;5093390;28;19944;-71
2024/03/08 03:52:42;;;;;;;;;;;;;;;;;;5075638;28;19919;-71
2024/03/08 03:55:08;;;;;;;;;;;;;;;;;;5075637;28;19915;-71
2024/03/08 03:57:34;;;;;;;;;;;;;;;;;;5093638;28;20397;-71
2024/03/08 04:00:00;;;;;;;;;;;;;;;;;;5075541;28;19908;-71
2024/03/08 04:02:26;;;;;;;;;;;;;;;;;;5093885;28;19916;-71
2024/03/08 04:04:52;;;;;;;;;;;;;;;;;;5093425;28;20018;-72
2024/03/08 04:07:18;;;;;;;;;;;;;;;;;;5093972;28;19997;-71
2024/03/08 04:09:44;;;;;;;;;;;;;;;;;;5094261;28;19914;-72
2024/03/08 04:12:10;;;;;;;;;;;;;;;;;;5093585;28;20352;-71
2024/03/08 04:14:36;;;;;;;;;;;;;;;;;;5093551;28;19908;-71
2024/03/08 04:17:02;;;;;;;;;;;;;;;;;;5093641;28;19919;-72
2024/03/08 04:19:29;;;;;;;;;;;;;;;;;;5093431;28;19910;-71
2024/03/08 04:21:55;;;;;;;;;;;;;;;;;;5093965;28;19908;-69
2024/03/08 04:24:21;;;;;;;;;;;;;;;;;;5093494;28;19919;-69
2024/03/08 04:26:47;;;;;;;;;;;;;;;;;;5093302;28;20283;-69
2024/03/08 04:29:14;;;;;;;;;;;;;;;;;;5093475;28;19908;-70
2024/03/08 04:31:40;;;;;;;;;;;;;;;;;;5093728;28;19913;-69
2024/03/08 04:34:06;;;;;;;;;;;;;;;;;;5093074;28;20356;-69
2024/03/08 04:36:34;;;;;;;;;;;;;;;;;;5093450;28;19918;-70
2024/03/08 04:39:00;;;;;;;;;;;;;;;;;;5093417;28;19908;-70
2024/03/08 04:41:26;;;;;;;;;;;;;;;;;;5092935;28;19995;-70
2024/03/08 04:43:52;;;;;;;;;;;;;;;;;;5093291;28;20015;-70
2024/03/08 04:46:19;;;;;;;;;;;;;;;;;;5093512;28;19908;-70
2024/03/08 04:48:45;;;;;;;;;;;;;;;;;;5093123;28;19947;-70
2024/03/08 04:51:11;;;;;;;;;;;;;;;;;;5093677;28;19916;-70
2024/03/08 04:53:37;;;;;;;;;;;;;;;;;;5096565;28;19908;-70
2024/03/08 04:56:06;;;;;;;;;;;;;;;;;;5096955;28;19970;-70
2024/03/08 04:58:32;;;;;;;;;;;;;;;;;;5096902;28;19912;-70
2024/03/08 05:00:58;;;;;;;;;;;;;;;;;;5078245;28;19908;-70
2024/03/08 05:03:26;;;;;;;;;;;;;;;;;;5096765;28;19915;-70
2024/03/08 05:05:52;;;;;;;;;;;;;;;;;;5096704;28;19920;-70
2024/03/08 05:08:19;;;;;;;;;;;;;;;;;;5096250;28;20280;-70
2024/03/08 05:10:46;;;;;;;;;;;;;;;;;;5078372;28;20509;-70
2024/03/08 05:13:12;;;;;;;;;;;;;;;;;;5096643;28;19919;-70
2024/03/08 05:15:39;;;;;;;;;;;;;;;;;;5096098;28;19908;-70
2024/03/08 05:18:05;;;;;;;;;;;;;;;;;;5078328;28;19908;-70
2024/03/08 05:20:31;;;;;;;;;;;;;;;;;;5096403;28;19908;-70
2024/03/08 05:22:59;;;;;;;;;;;;;;;;;;5096121;28;19915;-70
2024/03/08 05:25:26;;;;;;;;;;;;;;;;;;5096301;28;19916;-70
2024/03/08 05:27:52;;;;;;;;;;;;;;;;;;5096235;28;19931;-69
2024/03/08 05:30:18;;;;;;;;;;;;;;;;;;5095903;28;19995;-70
2024/03/08 05:32:47;;;;;;;;;;;;;;;;;;5095165;28;19908;-70
2024/03/08 05:35:16;;;;;;;;;;;;;;;;;;5077508;28;19915;-70
2024/03/08 05:37:42;;;;;;;;;;;;;;;;;;5095723;28;19957;-70
2024/03/08 05:40:09;;;;;;;;;;;;;;;;;;5095711;28;19948;-70
2024/03/08 05:42:35;;;;;;;;;;;;;;;;;;5096127;28;20003;-70
2024/03/08 05:45:01;;;;;;;;;;;;;;;;;;5077248;28;19920;-70
2024/03/08 05:47:27;;;;;;;;;;;;;;;;;;5095970;28;19916;-71
2024/03/08 05:49:53;;;;;;;;;;;;;;;;;;5094391;28;19912;-71
2024/03/08 05:52:19;;;;;;;;;;;;;;;;;;5093892;28;19994;-70
2024/03/08 05:54:46;;;;;;;;;;;;;;;;;;5094468;28;20318;-70
2024/03/08 05:57:11;;;;;;;;;;;;;;;;;;5094720;28;19914;-70
2024/03/08 05:59:37;;;;;;;;;;;;;;;;;;5095277;28;19961;-70
2024/03/08 06:02:04;;;;;;;;;;;;;;;;;;5094279;28;19912;-70
2024/03/08 06:04:31;;;;;;;;;;;;;;;;;;5095141;28;20006;-70
2024/03/08 06:06:58;;;;;;;;;;;;;;;;;;5077760;28;20334;-70
2024/03/08 06:09:24;;;;;;;;;;;;;;;;;;5095406;28;19969;-70
2024/03/08 06:11:50;;;;;;;;;;;;;;;;;;5094461;28;19908;-70
2024/03/08 06:14:19;;;;;;;;;;;;;;;;;;5095028;28;20352;-71
2024/03/08 06:16:45;;;;;;;;;;;;;;;;;;5076027;28;19920;-71
2024/03/08 06:19:11;;;;;;;;;;;;;;;;;;5092491;28;19911;-71
2024/03/08 06:21:37;;;;;;;;;;;;;;;;;;5101734;28;20305;-69
2024/03/08 06:24:04;;;;;;;;;;;;;;;;;;5088089;28;20004;-70
2024/03/08 06:26:30;;;;;;;;;;;;;;;;;;5089956;28;19919;-71
2024/03/08 06:28:56;;;;;;;;;;;;;;;;;;5081889;28;19916;-70
2024/03/08 06:31:22;;;;;;;;;;;;;;;;;;5091173;28;19912;-72
2024/03/08 06:33:54;;;;;;;;;;;;;;;;;;5071325;28;20002;-68
2024/03/08 06:36:24;;;;;;;;;;;;;;;;;;5090595;28;20273;-68
2024/03/08 06:38:50;;;;;;;;;;;;;;;;;;5087804;28;19912;-70
2024/03/08 06:41:16;;;;;;;;;;;;;;;;;;5067842;28;19957;-67
2024/03/08 06:43:43;;;;;;;;;;;;;;;;;;5071959;28;19924;-68
2024/03/08 06:46:11;;;;;;;;;;;;;;;;;;5089180;28;19923;-68
2024/03/08 06:48:37;;;;;;;;;;;;;;;;;;5068568;28;20353;-66
2024/03/08 06:51:04;;;;;;;;;;;;;;;;;;5093544;28;20297;-69
2024/03/08 06:53:30;;;;;;;;;;;;;;;;;;5088796;28;19912;-69
2024/03/08 06:55:57;;;;;;;;;;;;;;;;;;5087945;28;19912;-70
2024/03/08 06:58:23;;;;;;;;;;;;;;;;;;5090821;28;19933;-67
2024/03/08 07:00:52;;;;;;;;;;;;;;;;;;5088031;28;19912;-67
2024/03/08 07:03:18;;;;;;;;;;;;;;;;;;5084678;28;20277;-66
2024/03/08 07:05:44;;;;;;;;;;;;;;;;;;5071749;28;20652;-66
2024/03/08 07:08:09;;;;;;;;;;;;;;;;;;5089216;28;19919;-66
2024/03/08 07:10:37;;;;;;;;;;;;;;;;;;5089136;28;20000;-65
2024/03/08 07:13:03;;;;;;;;;;;;;;;;;;5092205;28;19912;-65
2024/03/08 07:15:29;;;;;;;;;;;;;;;;;;5085282;28;19908;-66
2024/03/08 07:17:55;;;;;;;;;;;;;;;;;;5084581;28;20340;-67
2024/03/08 07:20:21;;;;;;;;;;;;;;;;;;5081214;28;20324;-66
2024/03/08 07:22:50;;;;;;;;;;;;;;;;;;5090167;28;20391;-65
2024/03/08 07:25:23;;;;;;;;;;;;;;;;;;5082002;28;20372;-65
2024/03/08 07:27:49;;;;;;;;;;;;;;;;;;5072645;28;19908;-65
2024/03/08 07:33:02;;;;;;;;;;;;;;;;;;5088400;28;20292;-65
2024/03/08 07:35:28;;;;;;;;;;;;;;;;;;5087965;28;19916;-67
2024/03/08 07:37:54;;;;;;;;;;;;;;;;;;5068685;28;19923;-66
2024/03/08 07:40:20;;;;;;;;;;;;;;;;;;5091225;28;19916;-67
2024/03/08 07:42:46;;;;;;;;;;;;;;;;;;5085295;28;19912;-69
2024/03/08 07:45:12;;;;;;;;;;;;;;;;;;5090545;28;19980;-68
2024/03/08 07:47:40;;;;;;;;;;;;;;;;;;5079468;28;19921;-66
2024/03/08 07:50:08;;;;;;;;;;;;;;;;;;5066794;28;19909;-68
2024/03/08 07:52:34;;;;;;;;;;;;;;;;;;5085567;28;20267;-69
2024/03/08 07:54:59;;;;;;;;;;;;;;;;;;5088998;28;20006;-66
2024/03/08 07:57:26;;;;;;;;;;;;;;;;;;5089719;28;19912;-66
2024/03/08 07:59:52;;;;;;;;;;;;;;;;;;5089710;28;19977;-66
2024/03/08 08:02:18;;;;;;;;;;;;;;;;;;5090219;28;20730;-67
2024/03/08 08:04:47;;;;;;;;;;;;;;;;;;5084461;28;20364;-67
2024/03/08 08:07:14;;;;;;;;;;;;;;;;;;5089624;28;19948;-68
2024/03/08 08:09:42;;;;;;;;;;;;;;;;;;5091051;28;20018;-67
2024/03/08 08:12:09;;;;;;;;;;;;;;;;;;5090552;28;19908;-67
2024/03/08 08:14:35;;;;;;;;;;;;;;;;;;5094332;28;20318;-68
2024/03/08 08:17:04;;;;;;;;;;;;;;;;;;5077516;28;19912;-66
2024/03/08 08:19:30;;;;;;;;;;;;;;;;;;5079774;28;19916;-66
2024/03/08 08:21:56;;;;;;;;;;;;;;;;;;5087853;28;20292;-66
2024/03/08 08:24:22;;;;;;;;;;;;;;;;;;5079494;28;19924;-65
2024/03/08 08:26:48;;;;;;;;;;;;;;;;;;5086547;28;20361;-65
2024/03/08 08:29:14;;;;;;;;;;;;;;;;;;5081093;28;19916;-68
2024/03/08 08:31:40;;;;;;;;;;;;;;;;;;5088092;28;19912;-65
2024/03/08 08:34:06;;;;;;;;;;;;;;;;;;5085903;28;19922;-67
2024/03/08 08:36:33;;;;;;;;;;;;;;;;;;5091383;28;19920;-66
2024/03/08 08:38:59;;;;;;;;;;;;;;;;;;5089859;28;19965;-65
2024/03/08 08:41:26;;;;;;;;;;;;;;;;;;5075169;28;19908;-67
2024/03/08 08:43:52;;;;;;;;;;;;;;;;;;5090263;28;20392;-66
2024/03/08 08:46:18;;;;;;;;;;;;;;;;;;5065565;28;19977;-68
2024/03/08 08:48:45;;;;;;;;;;;;;;;;;;5089873;28;19908;-67
2024/03/08 08:51:13;;;;;;;;;;;;;;;;;;5094536;28;19920;-65
2024/03/08 08:53:43;;;;;;;;;;;;;;;;;;5085985;28;19969;-66
2024/03/08 08:56:09;;;;;;;;;;;;;;;;;;5066849;28;19981;-67
2024/03/08 08:58:34;;;;;;;;;;;;;;;;;;5090576;28;20352;-69
2024/03/08 09:01:01;;;;;;;;;;;;;;;;;;5088650;28;19946;-68
2024/03/08 09:03:29;;;;;;;;;;;;;;;;;;5083544;28;19912;-67
2024/03/08 09:05:56;;;;;;;;;;;;;;;;;;5087201;28;20499;-68
2024/03/08 09:08:23;;;;;;;;;;;;;;;;;;5090030;28;19944;-67
2024/03/08 09:10:49;;;;;;;;;;;;;;;;;;5098997;28;19935;-67
2024/03/08 09:13:16;;;;;;;;;;;;;;;;;;5095834;28;19984;-67
2024/03/08 09:15:42;;;;;;;;;;;;;;;;;;5090117;28;19912;-68
2024/03/08 09:18:08;;;;;;;;;;;;;;;;;;5092675;28;19955;-69
2024/03/08 09:20:35;;;;;;;;;;;;;;;;;;5092338;28;20353;-70
2024/03/08 09:23:01;;;;;;;;;;;;;;;;;;5091870;28;20007;-70
2024/03/08 09:25:27;;;;;;;;;;;;;;;;;;5093102;28;20157;-70
2024/03/08 09:27:54;;;;;;;;;;;;;;;;;;5101975;28;20279;-70
2024/03/08 09:30:21;;;;;;;;;;;;;;;;;;5094689;28;19912;-71
2024/03/08 09:32:47;;;;;;;;;;;;;;;;;;5092053;28;19912;-72
2024/03/08 09:35:13;;;;;;;;;;;;;;;;;;5091103;28;19916;-68
2024/03/08 09:37:39;;;;;;;;;;;;;;;;;;5074213;28;19912;-69
2024/03/08 09:40:09;;;;;;;;;;;;;;;;;;5085607;28;19912;-69
2024/03/08 09:42:37;;;;;;;;;;;;;;;;;;5074728;28;19916;-70
2024/03/08 09:45:04;;;;;;;;;;;;;;;;;;5092124;28;19927;-70
2024/03/08 09:47:33;;;;;;;;;;;;;;;;;;5087322;28;19954;-70
2024/03/08 09:49:59;;;;;;;;;;;;;;;;;;5075577;28;19916;-70
2024/03/08 09:52:25;;;;;;;;;;;;;;;;;;5073628;28;19908;-70
2024/03/08 09:54:51;;;;;;;;;;;;;;;;;;5089580;28;20006;-70
2024/03/08 09:57:17;;;;;;;;;;;;;;;;;;5092328;28;19908;-70
2024/03/08 10:01:52;;;;;;;;;;;;;;;;;;5074392;28;19928;-69
2024/03/08 10:06:31;;;;;;;;;;;;;;;;;;5170998;27;19918;-69
2024/03/08 10:10:08;;;;;;;;;;;;;;;;;;5057518;28;19928;-70
2024/03/08 10:13:51;;;;;;;;;;;;;;;;;;5136469;27;19920;-68
2024/03/08 10:16:18;;;;;;;;;;;;;;;;;;5125854;28;20014;-68
2024/03/08 10:19:31;;;;;;;;;;;;;;;;;;5064017;27;19923;-69
2024/03/08 10:28:32;;;;;;;;;;;;;;;;;;5045635;28;19927;-68
2024/03/08 10:31:50;;;;;;;;;;;;;;;;;;5088418;27;20274;-69
2024/03/08 10:36:42;;;;;;;;;;;;;;;;;;5074494;27;20300;-68
2024/03/08 10:39:08;;;;;;;;;;;;;;;;;;5077468;28;19913;-65
2024/03/08 10:41:34;;;;;;;;;;;;;;;;;;5070124;28;19920;-67
2024/03/08 10:44:59;;;;;;;;;;;;;;;;;;5087170;27;20391;-68
2024/03/08 10:48:15;;;;;;;;;;;;;;;;;;5066407;28;19920;-69
2024/03/08 10:50:41;;;;;;;;;;;;;;;;;;5066676;28;20373;-68
2024/03/08 10:53:55;;;;;;;;;;;;;;;;;;5086930;27;20596;-68
2024/03/08 10:58:38;;;;;;;;;;;;;;;;;;5128307;27;20410;-68
2024/03/08 11:03:28;;;;;;;;;;;;;;;;;;5148984;27;19925;-69
2024/03/08 11:05:54;;;;;;;;;;;;;;;;;;5143659;27;20071;-70
2024/03/08 11:08:20;;;;;;;;;;;;;;;;;;5138636;27;20402;-69
2024/03/08 11:10:46;;;;;;;;;;;;;;;;;;5131222;27;19927;-74
2024/03/08 11:13:12;;;;;;;;;;;;;;;;;;5125185;28;19908;-73
2024/03/08 11:20:39;;;;;;;;;;;;;;;;;;5125045;27;19916;-74
2024/03/08 11:24:16;;;;;;;;;;;;;;;;;;5085331;27;19974;-73
2024/03/08 11:28:28;;;;;;;;;;;;;;;;;;5088882;27;19943;-72
2024/03/08 11:30:56;;;;;;;;;;;;;;;;;;5089830;28;19912;-74
2024/03/08 11:33:25;;;;;;;;;;;;;;;;;;5088460;28;20395;-73
2024/03/08 11:35:51;;;;;;;;;;;;;;;;;;5089463;28;20007;-73
2024/03/08 11:38:19;;;;;;;;;;;;;;;;;;5089993;28;19960;-73
2024/03/08 11:40:45;;;;;;;;;;;;;;;;;;5087177;28;20380;-73
2024/03/08 11:47:14;;;;;;;;;;;;;;;;;;5090499;28;19916;-72
2024/03/08 11:51:30;;;;;;;;;;;;;;;;;;5090115;27;19919;-72
2024/03/08 11:59:52;;;;;;;;;;;;;;;;;;5151586;27;19921;-73
2024/03/08 12:02:21;;;;;;;;;;;;;;;;;;5151166;27;19950;-73
2024/03/08 12:04:47;;;;;;;;;;;;;;;;;;5151408;27;19952;-73
2024/03/08 12:07:14;;;;;;;;;;;;;;;;;;5152145;27;19908;-73
2024/03/08 12:11:50;;;;;;;;;;;;;;;;;;5090191;27;20386;-73
2024/03/08 12:14:16;;;;;;;;;;;;;;;;;;5090907;28;19935;-72
2024/03/08 12:18:58;;;;;;;;;;;;;;;;;;5089574;27;19917;-74
2024/03/08 12:21:25;;;;;;;;;;;;;;;;;;5089551;28;19912;-73
2024/03/08 12:25:00;;;;;;;;;;;;;;;;;;5088041;27;19919;-73
2024/03/08 12:27:28;;;;;;;;;;;;;;;;;;5087985;28;19913;-73
2024/03/08 12:31:25;;;;;;;;;;;;;;;;;;5088663;27;19916;-73
2024/03/08 12:33:51;;;;;;;;;;;;;;;;;;5088793;28;19920;-73
2024/03/08 12:36:17;;;;;;;;;;;;;;;;;;5089248;28;20288;-70
2024/03/08 12:38:43;;;;;;;;;;;;;;;;;;5088985;28;19915;-69
2024/03/08 12:41:09;;;;;;;;;;;;;;;;;;5090635;28;19912;-70
2024/03/08 12:43:35;;;;;;;;;;;;;;;;;;5083653;28;19958;-70
2024/03/08 12:46:01;;;;;;;;;;;;;;;;;;5089946;28;19916;-71
2024/03/08 12:51:54;;;;;;;;;;;;;;;;;;5089653;27;19921;-70
2024/03/08 12:54:26;;;;;;;;;;;;;;;;;;5088717;28;19916;-69
2024/03/08 12:56:55;;;;;;;;;;;;;;;;;;5089686;28;19938;-70
2024/03/08 13:00:18;;;;;;;;;;;;;;;;;;5089356;27;19912;-70
2024/03/08 13:05:16;;;;;;;;;;;;;;;;;;5070815;28;19923;-70
2024/03/08 13:07:45;;;;;;;;;;;;;;;;;;5069028;28;20008;-70
2024/03/08 13:10:14;;;;;;;;;;;;;;;;;;5070848;28;19913;-71
2024/03/08 13:13:24;;;;;;;;;;;;;;;;;;5110623;27;19916;-71
2024/03/08 13:15:51;;;;;;;;;;;;;;;;;;5111249;28;19918;-70
2024/03/08 13:19:57;;;;;;;;;;;;;;;;;;5070659;28;19927;-70
2024/03/08 13:22:24;;;;;;;;;;;;;;;;;;5071186;28;19923;-70
2024/03/08 13:24:52;;;;;;;;;;;;;;;;;;5070656;28;19913;-70
2024/03/08 13:27:32;;;;;;;;;;;;;;;;;;5111932;27;20008;-70
2024/03/08 13:29:58;;;;;;;;;;;;;;;;;;5111886;28;19998;-71
2024/03/08 13:32:25;;;;;;;;;;;;;;;;;;5110583;28;20011;-71
2024/03/08 13:34:51;;;;;;;;;;;;;;;;;;5111151;28;19908;-70
2024/03/08 13:37:17;;;;;;;;;;;;;;;;;;5111537;28;20338;-70
2024/03/08 13:39:43;;;;;;;;;;;;;;;;;;5111152;28;19914;-70
2024/03/08 13:42:16;;;;;;;;;;;;;;;;;;5107623;28;20372;-71
2024/03/08 13:44:42;;;;;;;;;;;;;;;;;;5111420;28;19950;-71
2024/03/08 13:47:08;;;;;;;;;;;;;;;;;;5111600;28;19916;-71
2024/03/08 13:49:34;;;;;;;;;;;;;;;;;;5110683;28;19989;-71
2024/03/08 13:52:00;;;;;;;;;;;;;;;;;;5111619;28;20360;-71
2024/03/08 13:54:27;;;;;;;;;;;;;;;;;;5111258;28;19915;-71
2024/03/08 13:56:54;;;;;;;;;;;;;;;;;;5110829;28;20348;-71
2024/03/08 13:59:22;;;;;;;;;;;;;;;;;;5110870;28;19952;-71
2024/03/08 14:01:48;;;;;;;;;;;;;;;;;;5111095;28;19914;-71
2024/03/08 14:04:16;;;;;;;;;;;;;;;;;;5109736;28;19942;-71
2024/03/08 14:06:44;;;;;;;;;;;;;;;;;;5109179;28;20368;-71
2024/03/08 14:09:16;;;;;;;;;;;;;;;;;;5110203;28;19992;-71
2024/03/08 14:11:42;;;;;;;;;;;;;;;;;;5109403;28;19915;-71
2024/03/08 14:14:08;;;;;;;;;;;;;;;;;;5109531;28;19908;-71
2024/03/08 14:16:37;;;;;;;;;;;;;;;;;;5110345;28;19909;-72
2024/03/08 14:19:05;;;;;;;;;;;;;;;;;;5110932;28;19910;-71
2024/03/08 14:21:31;;;;;;;;;;;;;;;;;;5110623;28;19934;-71
2024/03/08 14:23:57;;;;;;;;;;;;;;;;;;5110202;28;19912;-71
2024/03/08 14:26:23;;;;;;;;;;;;;;;;;;5109013;28;20035;-71
2024/03/08 14:28:54;;;;;;;;;;;;;;;;;;5110671;28;19908;-72
2024/03/08 14:31:20;;;;;;;;;;;;;;;;;;5110128;28;20003;-71
2024/03/08 14:33:49;;;;;;;;;;;;;;;;;;5110509;28;19951;-71
2024/03/08 14:36:16;;;;;;;;;;;;;;;;;;5110410;28;19915;-72
2024/03/08 14:38:42;;;;;;;;;;;;;;;;;;5097264;28;19908;-71
2024/03/08 14:41:08;;;;;;;;;;;;;;;;;;5096758;28;20375;-72
2024/03/08 14:43:34;;;;;;;;;;;;;;;;;;5095453;28;19908;-72
2024/03/08 14:46:00;;;;;;;;;;;;;;;;;;5096300;28;20265;-72
2024/03/08 14:48:27;;;;;;;;;;;;;;;;;;5096836;28;20292;-72
2024/03/08 14:50:53;;;;;;;;;;;;;;;;;;5095301;28;19908;-72
2024/03/08 14:53:19;;;;;;;;;;;;;;;;;;5096317;28;20291;-71
2024/03/08 14:55:46;;;;;;;;;;;;;;;;;;5096338;28;19940;-72
2024/03/08 14:58:12;;;;;;;;;;;;;;;;;;5094969;28;20383;-72
2024/03/08 15:00:39;;;;;;;;;;;;;;;;;;5095910;28;19908;-72
2024/03/08 15:03:06;;;;;;;;;;;;;;;;;;5096539;28;19908;-71
2024/03/08 15:05:35;;;;;;;;;;;;;;;;;;5095810;28;19912;-71
2024/03/08 15:08:08;;;;;;;;;;;;;;;;;;5096163;28;19924;-72
2024/03/08 15:10:35;;;;;;;;;;;;;;;;;;5096142;28;19908;-71
2024/03/08 15:13:02;;;;;;;;;;;;;;;;;;5095815;28;19912;-71
2024/03/08 15:15:30;;;;;;;;;;;;;;;;;;5096142;28;19977;-71
2024/03/08 15:17:58;;;;;;;;;;;;;;;;;;5094832;28;20054;-70
2024/03/08 15:20:25;;;;;;;;;;;;;;;;;;5095579;28;19908;-71
2024/03/08 15:22:54;;;;;;;;;;;;;;;;;;5094641;28;20355;-71
2024/03/08 15:25:25;;;;;;;;;;;;;;;;;;5097958;28;19912;-70
2024/03/08 15:27:52;;;;;;;;;;;;;;;;;;5097420;28;19912;-72
2024/03/08 15:30:22;;;;;;;;;;;;;;;;;;5116111;28;19930;-71
2024/03/08 15:33:10;;;;;;;;;;;;;;;;;;5112533;27;19916;-71
2024/03/08 15:35:37;;;;;;;;;;;;;;;;;;5109964;28;20442;-70
2024/03/08 15:38:03;;;;;;;;;;;;;;;;;;5111854;28;19908;-71
2024/03/08 15:40:30;;;;;;;;;;;;;;;;;;5111794;28;20342;-71
2024/03/08 15:42:56;;;;;;;;;;;;;;;;;;5111020;28;19908;-70
2024/03/08 15:45:29;;;;;;;;;;;;;;;;;;5111525;28;19908;-70
2024/03/08 15:47:55;;;;;;;;;;;;;;;;;;5109769;28;19916;-70
2024/03/08 15:54:54;;;;;;;;;;;;;;;;;;5091544;27;19917;-71
2024/03/08 15:58:53;;;;;;;;;;;;;;;;;;5091493;27;19912;-71
2024/03/08 16:02:13;;;;;;;;;;;;;;;;;;5111237;27;19913;-72
2024/03/08 16:06:08;;;;;;;;;;;;;;;;;;5092161;28;19916;-72
2024/03/08 16:08:39;;;;;;;;;;;;;;;;;;5091346;28;20016;-71
2024/03/08 16:11:45;;;;;;;;;;;;;;;;;;5092155;27;19923;-70
2024/03/08 16:14:11;;;;;;;;;;;;;;;;;;5091252;28;20351;-70
2024/03/08 16:17:04;;;;;;;;;;;;;;;;;;5091202;27;19916;-72
2024/03/08 16:19:33;;;;;;;;;;;;;;;;;;5089994;28;20336;-72
2024/03/08 16:21:59;;;;;;;;;;;;;;;;;;5091142;28;19908;-71
2024/03/08 16:26:39;;;;;;;;;;;;;;;;;;5092196;27;20287;-71
2024/03/08 16:29:06;;;;;;;;;;;;;;;;;;5091233;28;19918;-71
2024/03/08 16:31:32;;;;;;;;;;;;;;;;;;5090715;28;19952;-70
2024/03/08 16:35:10;;;;;;;;;;;;;;;;;;5091574;28;20277;-71
2024/03/08 16:37:36;;;;;;;;;;;;;;;;;;5091124;28;20002;-70
2024/03/08 16:40:39;;;;;;;;;;;;;;;;;;5091759;27;19916;-70
2024/03/08 16:43:05;;;;;;;;;;;;;;;;;;5091298;28;20003;-71
2024/03/08 16:45:31;;;;;;;;;;;;;;;;;;5090913;28;20420;-72
2024/03/08 16:47:57;;;;;;;;;;;;;;;;;;5091294;28;19935;-70
2024/03/08 16:50:23;;;;;;;;;;;;;;;;;;5091180;28;20361;-71
2024/03/08 16:52:51;;;;;;;;;;;;;;;;;;5090786;28;20361;-71
2024/03/08 16:55:17;;;;;;;;;;;;;;;;;;5091260;28;20387;-71
2024/03/08 16:57:46;;;;;;;;;;;;;;;;;;5091077;28;19932;-72
2024/03/08 17:00:13;;;;;;;;;;;;;;;;;;5090620;28;20334;-72
2024/03/08 17:02:39;;;;;;;;;;;;;;;;;;5090929;28;19912;-71
2024/03/08 17:05:05;;;;;;;;;;;;;;;;;;5090580;28;19912;-70
2024/03/08 17:07:32;;;;;;;;;;;;;;;;;;5090812;28;19963;-71
2024/03/08 17:09:58;;;;;;;;;;;;;;;;;;5089484;28;19919;-71
2024/03/08 17:12:24;;;;;;;;;;;;;;;;;;5089128;28;20003;-71
2024/03/08 17:14:50;;;;;;;;;;;;;;;;;;5090836;28;19915;-71
2024/03/08 17:17:16;;;;;;;;;;;;;;;;;;5090738;28;19908;-71
2024/03/08 17:19:43;;;;;;;;;;;;;;;;;;5090341;28;19970;-70
2024/03/08 17:22:09;;;;;;;;;;;;;;;;;;5090607;28;19920;-70
2024/03/08 17:24:35;;;;;;;;;;;;;;;;;;5090538;28;19934;-70
2024/03/08 17:27:01;;;;;;;;;;;;;;;;;;5090154;28;20393;-71
2024/03/08 17:29:27;;;;;;;;;;;;;;;;;;5090572;28;20280;-70
2024/03/08 17:31:53;;;;;;;;;;;;;;;;;;5090498;28;19908;-71
2024/03/08 17:34:19;;;;;;;;;;;;;;;;;;5090035;28;19931;-71
2024/03/08 17:36:45;;;;;;;;;;;;;;;;;;5090331;28;19952;-72
2024/03/08 17:39:17;;;;;;;;;;;;;;;;;;5088786;28;20352;-71
2024/03/08 17:41:43;;;;;;;;;;;;;;;;;;5089844;28;19915;-70
2024/03/08 17:44:09;;;;;;;;;;;;;;;;;;5089983;28;19921;-72
2024/03/08 17:46:37;;;;;;;;;;;;;;;;;;5090155;28;19909;-70
2024/03/08 17:49:03;;;;;;;;;;;;;;;;;;5089696;28;19915;-71
2024/03/08 17:51:29;;;;;;;;;;;;;;;;;;5078179;28;19952;-70
2024/03/08 17:53:56;;;;;;;;;;;;;;;;;;5076572;28;19916;-70
2024/03/08 17:56:22;;;;;;;;;;;;;;;;;;5076110;28;19908;-70
2024/03/08 17:58:50;;;;;;;;;;;;;;;;;;5074992;28;20324;-70
2024/03/08 18:01:17;;;;;;;;;;;;;;;;;;5074594;28;19915;-70